Time;durP1;ratioP1;P1;durP2;ratioP2;P2;SDS_P1;SDS_P2;PMS_P1;PMS_P2;Temp;Humidity;BMP_temperature;BMP_pressure;BME280_temperature;BME280_humidity;BME280_pressure;Samples;Min_cycle;Max_cycle;Signal;HPM_P1;HPM_P2
2021/03/22 00:00:53;;;;;;;93.53;39.83;;;4.90;99.90;;;;;;5074043;28;20081;-75
2021/03/22 00:03:21;;;;;;;94.47;40.20;;;5.00;99.90;;;;;;5092015;28;20469;-76
2021/03/22 00:05:48;;;;;;;91.68;39.30;;;5.00;99.90;;;;;;5085196;28;20040;-76
2021/03/22 00:08:15;;;;;;;93.18;40.15;;;5.00;99.90;;;;;;5082658;28;20028;-74
2021/03/22 00:10:43;;;;;;;90.47;38.92;;;5.00;99.90;;;;;;5063884;28;20033;-75
2021/03/22 00:13:10;;;;;;;92.10;39.83;;;5.10;99.90;;;;;;5085717;28;20086;-75
2021/03/22 00:15:36;;;;;;;91.72;39.28;;;5.00;99.90;;;;;;5081199;28;20482;-75
2021/03/22 00:18:05;;;;;;;90.82;39.03;;;5.00;99.90;;;;;;5086711;28;20020;-74
2021/03/22 00:20:31;;;;;;;90.90;39.25;;;5.00;99.90;;;;;;5081730;28;20053;-74
2021/03/22 00:22:57;;;;;;;90.93;39.40;;;4.90;99.90;;;;;;5084339;28;20072;-76
2021/03/22 00:25:23;;;;;;;92.55;39.78;;;5.00;99.90;;;;;;5083215;28;20040;-75
2021/03/22 00:27:49;;;;;;;91.53;39.17;;;4.90;99.90;;;;;;5084935;28;20035;-75
2021/03/22 00:30:28;;;;;;;91.63;39.20;;;4.90;99.90;;;;;;5084780;28;20024;-75
2021/03/22 00:32:54;;;;;;;93.43;39.95;;;4.90;99.90;;;;;;5084429;28;20381;-74
2021/03/22 00:35:20;;;;;;;93.85;39.78;;;4.90;99.90;;;;;;5085031;28;20462;-75
2021/03/22 00:37:47;;;;;;;92.65;39.38;;;4.90;99.90;;;;;;5081467;28;20025;-75
2021/03/22 00:40:14;;;;;;;93.07;39.38;;;4.90;99.90;;;;;;5088314;28;20025;-75
2021/03/22 00:42:41;;;;;;;94.03;39.95;;;4.80;99.90;;;;;;5092531;28;20377;-75
2021/03/22 00:45:09;;;;;;;98.70;40.83;;;4.80;99.90;;;;;;5091711;28;20115;-75
2021/03/22 00:47:35;;;;;;;98.88;41.05;;;4.80;99.90;;;;;;5074426;28;20021;-75
2021/03/22 00:50:04;;;;;;;98.47;40.80;;;4.80;99.90;;;;;;5092359;28;20114;-75
2021/03/22 00:52:31;;;;;;;98.90;41.05;;;4.80;99.90;;;;;;5092177;28;20069;-74
2021/03/22 00:54:56;;;;;;;99.47;40.67;;;4.80;99.90;;;;;;5092285;28;20089;-73
2021/03/22 00:57:22;;;;;;;104.15;42.63;;;4.70;99.90;;;;;;5091340;28;20043;-74
2021/03/22 00:59:48;;;;;;;105.40;42.63;;;4.60;99.90;;;;;;5079526;28;20039;-73
2021/03/22 01:02:14;;;;;;;108.32;42.95;;;4.70;99.90;;;;;;5076709;28;20095;-74
2021/03/22 01:04:39;;;;;;;107.93;43.17;;;4.70;99.90;;;;;;5080460;28;20036;-74
2021/03/22 01:07:05;;;;;;;107.40;42.55;;;4.70;99.90;;;;;;5083014;28;20072;-75
2021/03/22 01:09:31;;;;;;;107.43;42.70;;;4.60;99.90;;;;;;5082679;28;20028;-74
2021/03/22 01:11:57;;;;;;;108.25;42.75;;;4.60;99.90;;;;;;5077427;28;20032;-74
2021/03/22 01:14:24;;;;;;;108.07;43.05;;;4.60;99.90;;;;;;5077768;28;20033;-75
2021/03/22 01:16:50;;;;;;;106.78;42.47;;;4.60;99.90;;;;;;5079590;28;20032;-73
2021/03/22 01:19:20;;;;;;;104.68;42.25;;;4.60;99.90;;;;;;5078144;28;20020;-73
2021/03/22 01:21:48;;;;;;;103.18;41.75;;;4.60;99.90;;;;;;5069640;28;20063;-74
2021/03/22 01:24:19;;;;;;;107.82;42.85;;;4.60;99.90;;;;;;5070852;28;20482;-73
2021/03/22 01:26:47;;;;;;;106.22;42.47;;;4.60;99.90;;;;;;5081950;28;20020;-74
2021/03/22 01:29:27;;;;;;;105.60;42.72;;;4.50;99.90;;;;;;5083679;28;20024;-73
2021/03/22 01:31:57;;;;;;;104.68;42.33;;;4.60;99.90;;;;;;5094612;28;20029;-76
2021/03/22 01:34:24;;;;;;;101.78;41.30;;;4.60;99.90;;;;;;5090782;28;20119;-75
2021/03/22 01:36:50;;;;;;;103.18;41.83;;;4.60;99.90;;;;;;5089566;28;20051;-74
2021/03/22 01:39:19;;;;;;;101.32;41.35;;;4.60;99.90;;;;;;5071514;28;20457;-75
2021/03/22 01:42:07;;;;;;;102.78;41.33;;;4.70;99.90;;;;;;5091190;28;20035;-74
2021/03/22 01:44:34;;;;;;;105.75;42.38;;;4.60;99.90;;;;;;5075619;28;20458;-75
2021/03/22 01:47:08;;;;;;;105.63;42.25;;;4.50;99.90;;;;;;5073404;28;20378;-74
2021/03/22 01:49:51;;;;;;;106.40;42.58;;;4.50;99.90;;;;;;5092773;28;20031;-76
2021/03/22 01:52:18;;;;;;;108.88;42.92;;;4.50;99.90;;;;;;5082283;28;20427;-74
2021/03/22 01:54:44;;;;;;;106.45;42.30;;;4.40;99.90;;;;;;5091057;28;20093;-74
2021/03/22 01:57:41;;;;;;;109.28;42.92;;;4.40;99.90;;;;;;5085789;28;20094;-74
2021/03/22 02:00:13;;;;;;;109.30;43.28;;;4.30;99.90;;;;;;5038530;28;20033;-75
2021/03/22 02:02:41;;;;;;;109.68;42.95;;;4.30;99.90;;;;;;5042360;28;20125;-74
2021/03/22 02:05:11;;;;;;;110.78;43.33;;;4.30;99.90;;;;;;5039182;28;20128;-74
2021/03/22 02:07:37;;;;;;;109.82;42.90;;;4.30;99.90;;;;;;5040604;28;20083;-73
2021/03/22 02:10:05;;;;;;;109.75;42.72;;;4.30;99.90;;;;;;5041003;28;20037;-74
2021/03/22 02:12:31;;;;;;;110.78;43.72;;;4.30;99.90;;;;;;5038855;28;20029;-74
2021/03/22 02:14:57;;;;;;;110.05;42.92;;;4.20;99.90;;;;;;5025624;28;20168;-76
2021/03/22 02:17:59;;;;;;;111.28;43.30;;;4.20;99.90;;;;;;5038065;28;20034;-72
2021/03/22 02:20:58;;;;;;;110.03;42.88;;;4.20;99.90;;;;;;5045875;28;20116;-73
2021/03/22 02:24:00;;;;;;;110.82;43.45;;;4.10;99.90;;;;;;5045785;28;20053;-73
2021/03/22 02:26:46;;;;;;;108.72;42.80;;;4.10;99.90;;;;;;5024622;28;20382;-72
2021/03/22 02:29:50;;;;;;;109.82;42.88;;;4.10;99.90;;;;;;5044781;28;20030;-71
2021/03/22 02:32:30;;;;;;;110.35;43.15;;;4.10;99.90;;;;;;5020717;28;20032;-73
2021/03/22 02:35:12;;;;;;;107.95;42.95;;;4.00;99.90;;;;;;5040832;28;20041;-73
2021/03/22 02:37:51;;;;;;;105.68;41.92;;;4.00;99.90;;;;;;5086733;28;20064;-71
2021/03/22 02:40:25;;;;;;;106.18;41.72;;;4.00;99.90;;;;;;5090100;28;20099;-72
2021/03/22 02:42:51;;;;;;;;;;;3.90;99.90;;;;;;5076429;28;20035;-71
2021/03/22 02:45:26;;;;;;;107.75;42.50;;;3.90;99.90;;;;;;5075858;28;20409;-73
2021/03/22 02:47:52;;;;;;;109.03;42.75;;;3.90;99.90;;;;;;5094144;28;20548;-72
2021/03/22 02:50:23;;;;;;;107.63;42.20;;;3.90;99.90;;;;;;5093442;28;20024;-73
2021/03/22 02:53:13;;;;;;;107.50;42.45;;;3.90;99.90;;;;;;5094399;28;20576;-72
2021/03/22 02:55:58;;;;;;;112.57;43.38;;;3.80;99.90;;;;;;5094207;28;20020;-72
2021/03/22 02:58:45;;;;;;;113.45;43.58;;;3.70;99.90;;;;;;5093163;28;20039;-73
2021/03/22 03:01:38;;;;;;;110.90;43.03;;;3.70;99.90;;;;;;5094078;28;20028;-73
2021/03/22 03:04:06;;;;;;;115.65;44.30;;;3.70;99.90;;;;;;5084574;28;20082;-72
2021/03/22 03:06:55;;;;;;;113.68;43.83;;;3.70;99.90;;;;;;5093141;28;20028;-71
2021/03/22 03:09:24;;;;;;;114.47;43.58;;;3.70;99.90;;;;;;5094039;28;20020;-74
2021/03/22 03:11:51;;;;;;;115.35;44.60;;;3.80;99.90;;;;;;5093308;28;20020;-73
2021/03/22 03:14:17;;;;;;;114.22;44.17;;;3.90;99.90;;;;;;5093840;28;20020;-74
2021/03/22 03:16:43;;;;;;;114.75;43.92;;;4.00;99.90;;;;;;5093735;28;20479;-73
2021/03/22 03:19:09;;;;;;;113.55;44.20;;;4.00;99.90;;;;;;5093373;28;20024;-73
2021/03/22 03:21:36;;;;;;;113.47;43.40;;;4.00;99.90;;;;;;5093710;28;20028;-73
2021/03/22 03:24:07;;;;;;;113.00;43.55;;;4.00;99.90;;;;;;5093696;28;20048;-72
2021/03/22 03:26:32;;;;;;;113.75;44.50;;;4.00;99.90;;;;;;5093446;28;20073;-74
2021/03/22 03:28:58;;;;;;;112.75;43.38;;;4.00;99.90;;;;;;5094002;28;20423;-73
2021/03/22 03:31:24;;;;;;;109.88;42.63;;;4.00;99.90;;;;;;5092907;28;20032;-73
2021/03/22 03:33:50;;;;;;;106.15;41.88;;;4.00;99.90;;;;;;5074931;28;20051;-69
2021/03/22 03:36:16;;;;;;;111.45;43.17;;;4.10;99.90;;;;;;5094399;28;20469;-71
2021/03/22 03:38:42;;;;;;;108.05;42.35;;;4.10;99.90;;;;;;5075720;28;20028;-71
2021/03/22 03:41:08;;;;;;;108.07;42.22;;;4.00;99.90;;;;;;5094216;28;20020;-73
2021/03/22 03:43:34;;;;;;;110.55;42.95;;;4.10;99.90;;;;;;5075954;28;20055;-71
2021/03/22 03:46:00;;;;;;;108.30;42.70;;;4.20;99.90;;;;;;5093618;28;20027;-72
2021/03/22 03:48:27;;;;;;;105.65;41.47;;;4.10;99.90;;;;;;5094096;28;20382;-70
2021/03/22 03:50:58;;;;;;;108.88;42.67;;;4.20;99.90;;;;;;5076073;28;20094;-71
2021/03/22 03:53:25;;;;;;;107.85;42.47;;;4.00;99.90;;;;;;5079497;28;20039;-71
2021/03/22 03:55:51;;;;;;;107.65;42.28;;;3.90;99.90;;;;;;5094193;28;20020;-70
2021/03/22 03:58:18;;;;;;;106.93;42.08;;;3.90;99.90;;;;;;5096613;28;20027;-72
2021/03/22 04:00:46;;;;;;;107.47;42.38;;;3.80;99.90;;;;;;5082796;28;20032;-71
2021/03/22 04:03:31;;;;;;;108.47;42.55;;;3.80;99.90;;;;;;5090238;28;20030;-71
2021/03/22 04:06:02;;;;;;;108.78;42.65;;;3.70;99.90;;;;;;5094135;28;20027;-73
2021/03/22 04:08:29;;;;;;;107.13;42.10;;;3.80;99.90;;;;;;5093358;28;20020;-72
2021/03/22 04:10:56;;;;;;;105.43;41.35;;;3.70;99.90;;;;;;5093269;28;20016;-72
2021/03/22 04:13:22;;;;;;;109.28;42.65;;;3.70;99.90;;;;;;5093346;28;20024;-73
2021/03/22 04:15:49;;;;;;;110.43;41.78;;;3.70;99.90;;;;;;5093885;28;20028;-73
2021/03/22 04:18:15;;;;;;;115.40;43.60;;;3.50;99.90;;;;;;5093471;28;20020;-72
2021/03/22 04:20:40;;;;;;;115.15;43.65;;;3.50;99.90;;;;;;5093312;28;20126;-71
2021/03/22 04:23:06;;;;;;;111.25;42.15;;;3.50;99.90;;;;;;5093203;28;20102;-69
2021/03/22 04:25:32;;;;;;;114.00;43.40;;;3.60;99.90;;;;;;5093051;28;20040;-70
2021/03/22 04:27:59;;;;;;;114.03;43.58;;;3.70;99.90;;;;;;5092958;28;20036;-72
2021/03/22 04:30:25;;;;;;;113.57;43.72;;;3.70;99.90;;;;;;5093614;28;20035;-72
2021/03/22 04:32:51;;;;;;;110.70;42.35;;;3.70;99.90;;;;;;5093395;28;20032;-71
2021/03/22 04:35:22;;;;;;;115.28;43.90;;;3.70;99.90;;;;;;5092604;28;20382;-70
2021/03/22 04:37:48;;;;;;;112.40;43.22;;;3.70;99.90;;;;;;5093094;28;20039;-71
2021/03/22 04:40:15;;;;;;;113.72;43.45;;;3.60;99.90;;;;;;5092958;28;20020;-70
2021/03/22 04:42:41;;;;;;;114.30;43.63;;;3.60;99.90;;;;;;5092192;28;20020;-72
2021/03/22 04:45:08;;;;;;;111.25;42.85;;;3.50;99.90;;;;;;5093191;28;20038;-73
2021/03/22 04:47:34;;;;;;;108.50;42.17;;;3.40;99.90;;;;;;5061419;28;20384;-72
2021/03/22 04:50:00;;;;;;;107.82;41.95;;;3.40;99.90;;;;;;5090955;28;20024;-71
2021/03/22 04:52:26;;;;;;;120.13;44.13;;;3.40;99.90;;;;;;5062944;28;20040;-71
2021/03/22 04:54:52;;;;;;;117.70;44.40;;;3.40;99.90;;;;;;5089773;28;20531;-70
2021/03/22 04:57:29;;;;;;;116.57;43.25;;;3.40;99.90;;;;;;5091721;28;20028;-70
2021/03/22 04:59:56;;;;;;;125.22;45.05;;;3.40;99.90;;;;;;5091035;28;20016;-70
2021/03/22 05:02:21;;;;;;;124.97;45.25;;;3.30;99.90;;;;;;5091384;28;20043;-71
2021/03/22 05:04:47;;;;;;;125.68;45.15;;;3.30;99.90;;;;;;5090745;28;20458;-71
2021/03/22 05:07:14;;;;;;;126.15;45.15;;;3.30;99.90;;;;;;5092426;28;20038;-73
2021/03/22 05:09:40;;;;;;;127.90;45.47;;;3.40;99.90;;;;;;5091448;28;20028;-72
2021/03/22 05:12:07;;;;;;;128.88;45.58;;;3.30;99.90;;;;;;5090664;28;20476;-72
2021/03/22 05:14:33;;;;;;;127.60;45.28;;;3.20;99.90;;;;;;5092071;28;20032;-71
2021/03/22 05:16:58;;;;;;;127.68;45.42;;;3.20;99.90;;;;;;5090805;28;20028;-72
2021/03/22 05:19:25;;;;;;;126.25;44.97;;;3.30;99.90;;;;;;5091806;28;20054;-71
2021/03/22 05:21:50;;;;;;;126.63;45.25;;;3.30;99.90;;;;;;5090745;28;20028;-72
2021/03/22 05:24:16;;;;;;;126.15;44.95;;;3.20;99.90;;;;;;5095270;28;20500;-72
2021/03/22 05:26:43;;;;;;;126.68;45.20;;;3.20;99.90;;;;;;5095319;28;20024;-71
2021/03/22 05:29:08;;;;;;;126.50;45.30;;;3.20;99.90;;;;;;5095029;28;20462;-72
2021/03/22 05:31:35;;;;;;;127.55;45.38;;;3.20;99.90;;;;;;5095331;28;20106;-77
2021/03/22 05:34:01;;;;;;;127.10;45.33;;;3.20;99.90;;;;;;5095253;28;20051;-75
2021/03/22 05:36:27;;;;;;;127.07;45.30;;;3.20;99.90;;;;;;5095266;28;20059;-72
2021/03/22 05:38:52;;;;;;;126.88;45.42;;;3.10;99.90;;;;;;5063688;28;20025;-75
2021/03/22 05:41:22;;;;;;;127.30;45.15;;;3.10;99.90;;;;;;5096482;28;20484;-73
2021/03/22 05:44:12;;;;;;;127.35;45.15;;;3.00;99.90;;;;;;5096377;28;20047;-73
2021/03/22 05:46:45;;;;;;;127.07;44.95;;;3.10;99.90;;;;;;5096154;28;20020;-72
2021/03/22 05:49:20;;;;;;;128.57;45.40;;;3.00;99.90;;;;;;5096447;28;20111;-73
2021/03/22 05:52:04;;;;;;;127.63;45.30;;;3.10;99.90;;;;;;5082217;28;20024;-74
2021/03/22 05:54:57;;;;;;;127.68;45.30;;;3.10;99.90;;;;;;5096356;28;20823;-73
2021/03/22 05:57:43;;;;;;;129.27;46.10;;;3.10;99.90;;;;;;5095373;28;20031;-74
2021/03/22 06:00:31;;;;;;;126.82;45.05;;;3.00;99.90;;;;;;5071629;28;20142;-77
2021/03/22 06:03:21;;;;;;;129.18;45.85;;;3.10;99.90;;;;;;5072306;28;20046;-74
2021/03/22 06:05:59;;;;;;;129.48;45.45;;;3.10;99.90;;;;;;5095724;28;20571;-74
2021/03/22 06:08:49;;;;;;;130.02;45.75;;;3.10;99.90;;;;;;5095775;28;20063;-73
2021/03/22 06:11:21;;;;;;;130.90;45.97;;;3.20;99.90;;;;;;5095890;28;20024;-73
2021/03/22 06:13:49;;;;;;;131.27;45.95;;;3.10;99.90;;;;;;5095144;28;20020;-73
2021/03/22 06:16:32;;;;;;;132.52;46.40;;;3.20;99.90;;;;;;5095524;28;20024;-73
2021/03/22 06:19:03;;;;;;;132.32;46.55;;;3.20;99.90;;;;;;5081897;28;20067;-74
2021/03/22 06:21:32;;;;;;;132.13;46.30;;;3.20;99.90;;;;;;5082701;28;20262;-74
2021/03/22 06:23:57;;;;;;;132.43;46.28;;;3.20;99.90;;;;;;5096735;28;20398;-72
2021/03/22 06:27:00;;;;;;;129.82;45.58;;;3.30;99.90;;;;;;5066830;28;20154;-74
2021/03/22 06:29:38;;;;;;;131.63;46.22;;;3.30;99.90;;;;;;4966792;28;20381;-73
2021/03/22 06:32:26;;;;;;;132.07;46.42;;;3.20;99.90;;;;;;4993549;28;20034;-73
2021/03/22 06:34:56;;;;;;;129.43;45.28;;;3.30;99.90;;;;;;4992428;28;20061;-73
2021/03/22 06:37:26;;;;;;;132.02;46.35;;;3.20;99.90;;;;;;4993309;28;20072;-74
2021/03/22 06:40:29;;;;;;;131.70;46.03;;;3.30;99.90;;;;;;4993532;28;20029;-74
2021/03/22 06:43:13;;;;;;;132.57;46.35;;;3.30;99.90;;;;;;4993422;28;20026;-74
2021/03/22 06:45:49;;;;;;;132.52;46.35;;;3.40;99.90;;;;;;4976905;28;20492;-74
2021/03/22 06:48:27;;;;;;;131.48;46.05;;;3.40;99.90;;;;;;4993113;28;20027;-74
2021/03/22 06:51:00;;;;;;;130.77;45.78;;;3.40;99.90;;;;;;4993259;28;20066;-74
2021/03/22 06:53:50;;;;;;;132.50;46.13;;;3.40;99.90;;;;;;4979883;28;20022;-74
2021/03/22 06:56:25;;;;;;;132.15;46.28;;;3.50;99.90;;;;;;4992747;28;20090;-73
2021/03/22 06:59:13;;;;;;;131.63;45.72;;;3.50;99.90;;;;;;4993283;28;20038;-74
2021/03/22 07:01:44;;;;;;;133.15;46.63;;;3.50;99.90;;;;;;4992725;28;20101;-73
2021/03/22 07:04:29;;;;;;;131.63;45.95;;;3.50;99.90;;;;;;5070940;28;20040;-74
2021/03/22 07:07:13;;;;;;;133.43;46.67;;;3.50;99.90;;;;;;5074886;28;20497;-75
2021/03/22 07:09:45;;;;;;;133.45;46.63;;;3.50;99.90;;;;;;5094175;28;20068;-74
2021/03/22 07:12:26;;;;;;;132.88;46.60;;;3.60;99.90;;;;;;5081172;28;20016;-74
2021/03/22 07:14:52;;;;;;;132.65;46.40;;;3.60;99.90;;;;;;5094328;28;20032;-74
2021/03/22 07:17:28;;;;;;;129.30;45.78;;;3.80;99.90;;;;;;5087389;28;20052;-73
2021/03/22 07:20:24;;;;;;;128.77;45.65;;;3.90;99.90;;;;;;5088604;28;20020;-74
2021/03/22 07:22:50;;;;;;;124.95;44.35;;;3.90;99.90;;;;;;5013613;28;20053;-74
2021/03/22 07:25:34;;;;;;;126.95;45.10;;;3.80;99.90;;;;;;5015452;28;20428;-75
2021/03/22 07:28:19;;;;;;;127.55;44.95;;;3.80;99.90;;;;;;4997294;28;20034;-74
2021/03/22 07:31:09;;;;;;;130.50;46.25;;;3.80;99.90;;;;;;5012250;28;20030;-73
2021/03/22 07:33:48;;;;;;;130.43;46.13;;;3.70;99.90;;;;;;5012127;28;20026;-73
2021/03/22 07:36:56;;;;;;;130.02;46.38;;;3.70;99.90;;;;;;4995554;28;20087;-73
2021/03/22 07:39:27;;;;;;;131.65;46.50;;;3.90;99.90;;;;;;4995159;28;20030;-74
2021/03/22 07:42:19;;;;;;;130.15;45.95;;;3.70;99.90;;;;;;5011896;28;20053;-73
2021/03/22 07:44:54;;;;;;;129.10;45.58;;;3.80;99.90;;;;;;5010974;28;20065;-73
2021/03/22 07:47:36;;;;;;;130.65;46.40;;;3.80;99.90;;;;;;5011750;28;20121;-72
2021/03/22 07:50:20;;;;;;;130.27;45.90;;;3.90;99.90;;;;;;4995308;28;20030;-74
2021/03/22 07:52:57;;;;;;;130.82;46.22;;;3.90;99.90;;;;;;5009793;28;20034;-73
2021/03/22 07:55:55;;;;;;;131.80;46.78;;;3.90;99.90;;;;;;5009782;28;20030;-73
2021/03/22 07:58:57;;;;;;;128.52;45.88;;;4.10;99.90;;;;;;5022308;28;20031;-75
2021/03/22 08:01:44;;;;;;;129.23;46.20;;;4.20;99.90;;;;;;5091032;28;20155;-73
2021/03/22 08:04:37;;;;;;;123.45;45.60;;;4.30;99.90;;;;;;5089833;28;20374;-73
2021/03/22 08:07:13;;;;;;;125.25;45.28;;;4.50;99.90;;;;;;5089703;28;20466;-73
2021/03/22 08:10:17;;;;;;;122.60;45.72;;;4.50;99.90;;;;;;5062858;28;20416;-73
2021/03/22 08:13:30;;;;;;;129.73;47.20;;;4.50;99.90;;;;;;5083139;28;20031;-73
2021/03/22 08:16:15;;;;;;;129.37;46.17;;;4.40;99.90;;;;;;5043537;28;20039;-73
2021/03/22 08:19:02;;;;;;;126.55;45.50;;;4.60;99.90;;;;;;5076518;28;20024;-73
2021/03/22 08:21:57;;;;;;;124.88;45.47;;;4.70;99.90;;;;;;5069289;28;20028;-71
2021/03/22 08:24:44;;;;;;;122.18;44.95;;;4.70;99.90;;;;;;5084447;28;20067;-72
2021/03/22 08:27:22;;;;;;;121.15;44.83;;;4.90;99.90;;;;;;5076001;28;20374;-73
2021/03/22 08:30:10;;;;;;;115.30;44.15;;;5.00;99.90;;;;;;5081996;28;20527;-73
2021/03/22 08:33:01;;;;;;;106.93;42.28;;;5.20;99.90;;;;;;5051472;28;20503;-72
2021/03/22 08:35:55;;;;;;;105.90;42.55;;;5.40;99.90;;;;;;5091808;28;20028;-75
2021/03/22 08:38:43;;;;;;;104.82;42.72;;;5.50;99.90;;;;;;5089549;28;20059;-74
2021/03/22 08:41:23;;;;;;;103.78;42.50;;;5.50;99.90;;;;;;5090459;28;20028;-73
2021/03/22 08:44:05;;;;;;;104.82;42.53;;;5.60;99.90;;;;;;5091376;28;20572;-73
2021/03/22 08:46:45;;;;;;;91.85;40.15;;;5.70;99.90;;;;;;5090246;28;20583;-73
2021/03/22 08:49:40;;;;;;;94.72;40.53;;;5.80;99.90;;;;;;5091343;28;20024;-73
2021/03/22 08:52:15;;;;;;;79.82;37.40;;;5.80;99.90;;;;;;5080132;28;20032;-72
2021/03/22 08:54:40;;;;;;;79.47;37.00;;;5.70;99.90;;;;;;5090597;28;20161;-72
2021/03/22 08:57:24;;;;;;;82.47;37.55;;;5.60;99.90;;;;;;5093546;28;20095;-73
2021/03/22 09:00:10;;;;;;;87.50;39.03;;;5.50;99.90;;;;;;5095728;28;20066;-71
2021/03/22 09:02:36;;;;;;;83.80;37.70;;;5.60;99.90;;;;;;5096626;28;20016;-74
2021/03/22 09:05:20;;;;;;;84.10;38.03;;;5.70;99.90;;;;;;5082245;28;20785;-72
2021/03/22 09:07:46;;;;;;;81.10;37.45;;;5.90;99.90;;;;;;5089560;28;20373;-72
2021/03/22 09:10:27;;;;;;;84.20;38.30;;;6.10;99.90;;;;;;5090728;28;20399;-75
2021/03/22 09:13:14;;;;;;;80.88;37.65;;;6.30;99.90;;;;;;5096454;28;20016;-74
2021/03/22 09:15:41;;;;;;;97.97;41.72;;;6.30;99.90;;;;;;5064695;28;20083;-74
2021/03/22 09:18:18;;;;;;;101.57;43.20;;;6.60;99.90;;;;;;5095550;28;20028;-75
2021/03/22 09:20:47;;;;;;;103.50;42.40;;;6.60;99.90;;;;;;5096954;28;20024;-74
2021/03/22 09:23:31;;;;;;;102.90;42.47;;;7.00;99.90;;;;;;5093292;28;20044;-76
2021/03/22 09:26:00;;;;;;;99.32;42.42;;;7.10;99.90;;;;;;5091715;28;20031;-72
2021/03/22 09:28:26;;;;;;;73.80;36.70;;;7.20;99.90;;;;;;5095951;28;20449;-72
2021/03/22 09:30:55;;;;;;;76.82;38.50;;;6.40;99.90;;;;;;5067753;28;20100;-71
2021/03/22 09:33:58;;;;;;;69.20;35.33;;;7.30;99.90;;;;;;5095397;28;20377;-73
2021/03/22 09:36:38;;;;;;;49.30;30.77;;;7.40;99.90;;;;;;5095706;28;20099;-74
2021/03/22 09:39:27;;;;;;;58.25;32.40;;;7.30;99.90;;;;;;5093387;28;20127;-71
2021/03/22 09:42:21;;;;;;;116.15;45.50;;;7.20;99.90;;;;;;5094993;28;20024;-71
2021/03/22 09:44:56;;;;;;;104.35;43.60;;;7.10;99.90;;;;;;5096178;28;20032;-71
2021/03/22 09:47:27;;;;;;;103.30;43.17;;;7.60;99.90;;;;;;5096333;28;20436;-72
2021/03/22 09:50:00;;;;;;;108.38;45.33;;;7.40;99.90;;;;;;5095462;28;20446;-73
2021/03/22 09:52:27;;;;;;;84.35;39.40;;;7.30;99.90;;;;;;5094427;28;20028;-72
2021/03/22 09:54:54;;;;;;;113.15;46.25;;;7.20;99.90;;;;;;5095430;28;20024;-73
2021/03/22 09:57:31;;;;;;;129.15;46.30;;;6.90;99.90;;;;;;5095060;28;20032;-72
2021/03/22 10:00:00;;;;;;;53.42;32.50;;;6.80;99.90;;;;;;5097562;28;20487;-72
2021/03/22 10:02:57;;;;;;;126.50;46.65;;;6.70;99.90;;;;;;5095252;28;20095;-71
2021/03/22 10:05:30;;;;;;;129.95;46.97;;;6.80;99.90;;;;;;5010382;28;20071;-71
2021/03/22 10:07:59;;;;;;;135.30;47.80;;;6.50;99.90;;;;;;5012417;28;20034;-72
2021/03/22 10:10:29;;;;;;;134.55;47.45;;;6.60;99.90;;;;;;4992488;28;20393;-72
2021/03/22 10:13:05;;;;;;;137.57;47.88;;;6.30;99.90;;;;;;5008235;28;20093;-71
2021/03/22 10:15:37;;;;;;;134.05;47.83;;;6.00;99.90;;;;;;5011715;28;20121;-71
2021/03/22 10:18:06;;;;;;;128.35;46.60;;;6.10;99.90;;;;;;4983557;28;20038;-70
2021/03/22 10:20:37;;;;;;;121.57;45.88;;;6.10;99.90;;;;;;5007298;28;20500;-72
2021/03/22 10:23:23;;;;;;;135.65;48.35;;;6.00;99.90;;;;;;5009439;28;20048;-72
2021/03/22 10:25:53;;;;;;;137.95;49.17;;;5.70;99.90;;;;;;5006207;28;20548;-72
2021/03/22 10:28:24;;;;;;;121.88;45.03;;;5.60;99.90;;;;;;5000941;28;20178;-71
2021/03/22 10:31:03;;;;;;;129.88;46.95;;;5.50;99.90;;;;;;5004056;28;20030;-71
2021/03/22 10:33:29;;;;;;;120.57;44.75;;;5.40;99.90;;;;;;4987586;28;20035;-70
2021/03/22 10:35:59;;;;;;;119.88;45.15;;;6.00;99.90;;;;;;4987449;28;20137;-71
2021/03/22 10:38:28;;;;;;;122.10;46.00;;;5.40;99.90;;;;;;4980199;28;20495;-72
2021/03/22 10:40:56;;;;;;;130.27;46.92;;;5.40;99.90;;;;;;5014670;28;20512;-71
2021/03/22 10:43:35;;;;;;;120.72;44.80;;;5.30;99.90;;;;;;5053974;28;20403;-69
2021/03/22 10:46:18;;;;;;;133.27;47.58;;;5.30;99.90;;;;;;5051416;28;20052;-71
2021/03/22 10:48:44;;;;;;;121.78;45.40;;;5.40;99.90;;;;;;5044310;28;20029;-69
2021/03/22 10:51:18;;;;;;;122.25;45.70;;;5.40;99.90;;;;;;5050233;28;20109;-70
2021/03/22 10:54:16;;;;;;;120.15;44.97;;;5.30;99.90;;;;;;5047612;28;20032;-71
2021/03/22 10:56:45;;;;;;;120.13;45.10;;;5.40;99.90;;;;;;5052339;28;20040;-69
2021/03/22 10:59:18;;;;;;;123.68;46.17;;;5.40;99.90;;;;;;5053748;28;20155;-71
2021/03/22 11:01:44;;;;;;;117.43;44.25;;;5.30;99.90;;;;;;5058608;28;20455;-71
2021/03/22 11:04:38;;;;;;;114.40;43.85;;;5.40;99.90;;;;;;5060534;28;20099;-73
2021/03/22 11:07:13;;;;;;;118.68;46.70;;;5.20;99.90;;;;;;5055932;28;20037;-70
2021/03/22 11:09:40;;;;;;;120.38;45.45;;;5.10;99.90;;;;;;5056194;28;20055;-69
2021/03/22 11:12:07;;;;;;;118.05;44.60;;;5.00;99.90;;;;;;5054939;28;20025;-72
2021/03/22 11:14:34;;;;;;;114.63;43.97;;;4.90;99.90;;;;;;5053918;28;20041;-73
2021/03/22 11:17:22;;;;;;;111.38;43.25;;;4.80;99.90;;;;;;5054896;28;20025;-77
2021/03/22 11:19:49;;;;;;;120.65;45.25;;;4.80;99.90;;;;;;5053469;28;20025;-72
2021/03/22 11:22:38;;;;;;;117.05;44.70;;;4.90;99.90;;;;;;5054725;28;20024;-71
2021/03/22 11:25:30;;;;;;;115.25;44.40;;;4.90;99.90;;;;;;5093702;28;20458;-72
2021/03/22 11:27:58;;;;;;;107.40;42.55;;;4.80;99.90;;;;;;5093777;28;20107;-72
2021/03/22 11:30:32;;;;;;;109.38;42.97;;;4.90;99.90;;;;;;5094635;28;20024;-71
2021/03/22 11:32:58;;;;;;;111.13;43.80;;;4.80;99.90;;;;;;5083393;28;20044;-71
2021/03/22 11:35:30;;;;;;;111.22;43.55;;;4.90;99.90;;;;;;5091813;28;20097;-73
2021/03/22 11:38:02;;;;;;;112.72;43.30;;;4.90;99.90;;;;;;5082693;28;20073;-71
2021/03/22 11:40:31;;;;;;;106.68;42.63;;;4.90;99.90;;;;;;5091653;28;20028;-72
2021/03/22 11:43:04;;;;;;;136.73;47.33;;;5.00;99.90;;;;;;5093194;28;20020;-72
2021/03/22 11:45:40;;;;;;;109.13;42.65;;;5.10;99.90;;;;;;5093585;28;20126;-70
2021/03/22 11:48:21;;;;;;;113.65;44.20;;;5.10;99.90;;;;;;5091926;28;20085;-70
2021/03/22 11:50:59;;;;;;;117.95;45.45;;;5.10;99.90;;;;;;5069335;28;20530;-75
2021/03/22 11:53:26;;;;;;;114.68;44.15;;;5.00;99.90;;;;;;5091544;28;20073;-73
2021/03/22 11:55:56;;;;;;;121.93;45.35;;;4.90;99.90;;;;;;5092970;28;20024;-73
2021/03/22 11:58:41;;;;;;;119.53;44.42;;;4.90;99.90;;;;;;5090748;28;20024;-74
2021/03/22 12:01:27;;;;;;;122.82;45.40;;;4.70;99.90;;;;;;5091773;28;20020;-73
2021/03/22 12:04:14;;;;;;;115.30;44.22;;;4.90;99.90;;;;;;5089995;28;20028;-72
2021/03/22 12:07:01;;;;;;;114.25;43.70;;;4.90;99.90;;;;;;5088046;28;20028;-72
2021/03/22 12:09:28;;;;;;;119.78;44.63;;;5.00;99.90;;;;;;5091609;28;20082;-72
2021/03/22 12:11:55;;;;;;;120.13;45.03;;;4.90;99.90;;;;;;5093627;28;20035;-73
2021/03/22 12:14:21;;;;;;;121.70;45.15;;;4.90;99.90;;;;;;5073775;28;20504;-71
2021/03/22 12:16:48;;;;;;;111.13;43.33;;;4.90;99.90;;;;;;5088615;28;20412;-71
2021/03/22 12:19:37;;;;;;;114.72;44.00;;;4.90;99.90;;;;;;5073808;28;20024;-76
2021/03/22 12:22:12;;;;;;;112.32;43.70;;;4.90;99.90;;;;;;5067874;28;20024;-73
2021/03/22 12:24:38;;;;;;;109.93;43.33;;;5.20;99.90;;;;;;5092471;28;20478;-71
2021/03/22 12:27:09;;;;;;;111.90;43.53;;;5.40;99.90;;;;;;5069527;28;20032;-72
2021/03/22 12:29:36;;;;;;;115.65;44.53;;;5.30;99.90;;;;;;5091643;28;20032;-73
2021/03/22 12:32:05;;;;;;;100.80;41.45;;;5.20;99.90;;;;;;5072184;28;20750;-72
2021/03/22 12:34:33;;;;;;;94.03;39.80;;;5.10;99.90;;;;;;5090079;28;20028;-76
2021/03/22 12:37:04;;;;;;;97.75;40.72;;;5.10;99.90;;;;;;5090378;28;20043;-72
2021/03/22 12:39:49;;;;;;;;;;;;;;;;;;;;;
2021/03/22 12:42:22;;;;;;;110.97;43.30;;;4.90;99.90;;;;;;5022847;28;20027;-72
2021/03/22 12:44:48;;;;;;;114.68;44.10;;;4.80;99.90;;;;;;5092645;28;20027;-70
2021/03/22 12:47:30;;;;;;;119.97;44.88;;;4.90;99.90;;;;;;5093287;28;20016;-72
2021/03/22 12:49:55;;;;;;;114.35;44.15;;;4.90;99.90;;;;;;5092019;28;20496;-72
2021/03/22 12:52:21;;;;;;;116.10;44.35;;;4.80;99.90;;;;;;5091742;28;20111;-73
2021/03/22 12:54:47;;;;;;;110.25;43.30;;;4.90;99.90;;;;;;5089523;28;20458;-72
2021/03/22 12:57:21;;;;;;;120.10;44.85;;;5.00;99.90;;;;;;5073707;28;20073;-70
2021/03/22 12:59:48;;;;;;;116.72;44.63;;;5.20;99.90;;;;;;5066596;28;20335;-78
2021/03/22 13:02:20;;;;;;;110.32;42.95;;;5.20;99.90;;;;;;5091186;28;20059;-72
2021/03/22 13:04:47;;;;;;;117.47;44.78;;;5.10;99.90;;;;;;5090304;28;20032;-72
2021/03/22 13:07:16;;;;;;;105.35;41.85;;;5.00;99.90;;;;;;5070807;28;20063;-72